createdAt,value
2018-02-11T00:00:00.078Z,0
2018-02-11T00:01:00.847Z,0
2018-02-11T00:02:00.456Z,0
2018-02-11T00:03:00.405Z,0
2018-02-11T00:03:58.409Z,0
2018-02-11T00:04:58.273Z,0
2018-02-11T00:05:59.372Z,0
2018-02-11T00:06:59.215Z,0
2018-02-11T00:07:59.159Z,0
2018-02-11T00:08:58.993Z,0
2018-02-11T00:09:59.092Z,0
2018-02-11T00:10:59.241Z,0
2018-02-11T00:11:59.035Z,0
2018-02-11T00:12:59.808Z,0
2018-02-11T00:13:59.717Z,0
2018-02-11T00:15:00.145Z,0
2018-02-11T00:15:59.898Z,0
2018-02-11T00:17:00.041Z,0
2018-02-11T00:17:59.986Z,0
2018-02-11T00:19:00.247Z,0
2018-02-11T00:20:00.473Z,0
2018-02-11T00:21:00.757Z,0
2018-02-11T00:22:00.946Z,0
2018-02-11T00:23:00.703Z,0
2018-02-11T00:24:01.200Z,0
2018-02-11T00:25:01.228Z,0
2018-02-11T00:26:00.983Z,0
2018-02-11T00:27:01.394Z,0
2018-02-11T00:28:01.218Z,0
2018-02-11T00:29:01.145Z,0
2018-02-11T00:30:01.278Z,0
2018-02-11T00:31:01.328Z,0
2018-02-11T00:32:01.585Z,0
2018-02-11T00:33:01.298Z,0
2018-02-11T00:34:01.941Z,0
2018-02-11T00:35:02.621Z,0
2018-02-11T00:36:03.056Z,0
2018-02-11T00:37:02.140Z,0
2018-02-11T00:38:02.422Z,0
2018-02-11T00:39:02.664Z,0
2018-02-11T00:40:02.412Z,0
2018-02-11T00:41:02.723Z,0
2018-02-11T00:42:02.870Z,0
2018-02-11T00:43:02.463Z,0
2018-02-11T00:44:03.364Z,0
2018-02-11T00:45:02.796Z,0
2018-02-11T00:46:03.411Z,0
2018-02-11T00:47:03.968Z,0
2018-02-11T00:48:03.093Z,0
2018-02-11T00:49:03.916Z,0
2018-02-11T00:50:04.209Z,0
2018-02-11T00:51:03.878Z,0
2018-02-11T00:52:03.417Z,0
2018-02-11T00:53:05.304Z,0
2018-02-11T00:54:04.182Z,0
2018-02-11T00:55:04.271Z,0
2018-02-11T00:56:04.704Z,0
2018-02-11T00:57:04.901Z,0
2018-02-11T00:58:04.917Z,0
2018-02-11T00:59:05.769Z,0
2018-02-11T01:01:05.207Z,0
2018-02-11T01:02:05.925Z,0
2018-02-11T01:03:05.740Z,0
2018-02-11T01:04:07.523Z,0
2018-02-11T01:05:05.790Z,0
2018-02-11T01:06:06.492Z,0
2018-02-11T01:07:06.085Z,0
2018-02-11T01:08:06.807Z,0
2018-02-11T01:09:07.100Z,0
2018-02-11T01:10:08.220Z,0
2018-02-11T01:11:07.348Z,0
2018-02-11T01:12:07.926Z,0
2018-02-11T01:13:08.398Z,0
2018-02-11T01:14:08.349Z,0
2018-02-11T01:15:09.002Z,0
2018-02-11T01:16:08.822Z,0
2018-02-11T01:17:08.821Z,0
2018-02-11T01:18:08.967Z,0
2018-02-11T01:19:09.881Z,0
2018-02-11T01:20:09.237Z,0
2018-02-11T01:21:11.867Z,0
2018-02-11T01:22:10.963Z,0
2018-02-11T01:23:11.388Z,0
2018-02-11T01:24:09.849Z,0
2018-02-11T01:25:11.201Z,0
2018-02-11T01:26:12.372Z,0
2018-02-11T01:27:10.484Z,0
2018-02-11T01:28:11.755Z,0
2018-02-11T01:30:09.633Z,0
2018-02-11T01:30:19.810Z,0
2018-02-11T01:31:19.941Z,0
2018-02-11T01:32:20.146Z,0
2018-02-11T01:33:20.641Z,0
2018-02-11T01:34:20.390Z,0
2018-02-11T01:35:20.334Z,0
2018-02-11T01:36:21.070Z,0
2018-02-11T01:37:20.800Z,0
2018-02-11T01:38:20.167Z,0
2018-02-11T01:39:21.212Z,0
2018-02-11T01:40:21.218Z,0
2018-02-11T01:41:21.380Z,0
2018-02-11T01:42:21.529Z,0
2018-02-11T01:43:21.343Z,0
2018-02-11T01:44:21.588Z,0
2018-02-11T01:45:21.774Z,0
2018-02-11T01:46:22.389Z,0
2018-02-11T01:47:22.569Z,0
2018-02-11T01:48:22.313Z,0
2018-02-11T01:49:22.488Z,0
2018-02-11T01:50:22.228Z,0
2018-02-11T01:51:23.005Z,0
2018-02-11T01:52:22.830Z,0
2018-02-11T01:53:23.097Z,0
2018-02-11T01:54:22.598Z,0
2018-02-11T01:55:22.784Z,0
2018-02-11T01:56:23.222Z,0
2018-02-11T01:57:23.362Z,0
2018-02-11T01:58:23.739Z,0
2018-02-11T01:59:23.868Z,0
2018-02-11T02:00:23.696Z,0
2018-02-11T02:01:23.880Z,0
2018-02-11T02:02:23.942Z,0
2018-02-11T02:03:24.113Z,0
2018-02-11T02:04:24.364Z,0
2018-02-11T02:05:24.114Z,0
2018-02-11T02:06:24.798Z,0
2018-02-11T02:07:24.268Z,0
2018-02-11T02:08:24.535Z,0
2018-02-11T02:09:24.910Z,0
2018-02-11T02:10:24.834Z,0
2018-02-11T02:11:24.736Z,0
2018-02-11T02:12:25.277Z,0
2018-02-11T02:13:25.901Z,0
2018-02-11T02:14:25.755Z,0
2018-02-11T02:15:25.707Z,0
2018-02-11T02:16:26.033Z,0
2018-02-11T02:17:26.696Z,0
2018-02-11T02:18:26.246Z,0
2018-02-11T02:19:26.555Z,0
2018-02-11T02:20:26.214Z,0
2018-02-11T02:21:25.967Z,0
2018-02-11T02:22:26.271Z,0
2018-02-11T02:23:26.678Z,0
2018-02-11T02:24:26.844Z,0
2018-02-11T02:25:26.955Z,0
2018-02-11T02:26:27.371Z,0
2018-02-11T02:27:27.498Z,0
2018-02-11T02:28:27.332Z,0
2018-02-11T02:29:27.643Z,0
2018-02-11T02:30:27.797Z,0
2018-02-11T02:31:27.856Z,0
2018-02-11T02:32:28.012Z,0
2018-02-11T02:33:28.314Z,0
2018-02-11T02:34:28.537Z,0
2018-02-11T02:35:28.180Z,0
2018-02-11T02:36:28.424Z,0
2018-02-11T02:37:28.876Z,0
2018-02-11T02:38:29.579Z,0
2018-02-11T02:39:29.462Z,0
2018-02-11T02:40:29.780Z,0
2018-02-11T02:41:29.464Z,0
2018-02-11T02:42:29.156Z,0
2018-02-11T02:43:29.305Z,0
2018-02-11T02:44:29.419Z,0
2018-02-11T02:45:29.416Z,0
2018-02-11T02:46:29.964Z,0
2018-02-11T02:47:29.760Z,0
2018-02-11T02:48:30.512Z,0
2018-02-11T02:49:30.711Z,0
2018-02-11T02:50:30.393Z,0
2018-02-11T02:51:30.675Z,0
2018-02-11T02:52:30.421Z,0
2018-02-11T02:53:30.561Z,0
2018-02-11T02:54:30.342Z,0
2018-02-11T02:55:30.847Z,0
2018-02-11T02:56:30.661Z,0
2018-02-11T02:57:30.858Z,0
2018-02-11T02:58:31.392Z,0
2018-02-11T02:59:31.659Z,0
2018-02-11T03:00:31.561Z,0
2018-02-11T03:01:32.530Z,0
2018-02-11T03:02:31.610Z,0
2018-02-11T03:03:31.965Z,0
2018-02-11T03:04:32.003Z,0
2018-02-11T03:05:31.924Z,0
2018-02-11T03:06:32.290Z,0
2018-02-11T03:07:32.527Z,0
2018-02-11T03:08:33.014Z,0
2018-02-11T03:09:32.461Z,0
2018-02-11T03:10:32.446Z,0
2018-02-11T03:11:32.758Z,0
2018-02-11T03:12:33.189Z,0
2018-02-11T03:13:33.669Z,0
2018-02-11T03:14:33.504Z,0
2018-02-11T03:15:34.658Z,0
2018-02-11T03:16:33.439Z,0
2018-02-11T03:17:34.227Z,0
2018-02-11T03:18:33.744Z,0
2018-02-11T03:19:33.901Z,0
2018-02-11T03:20:33.777Z,0
2018-02-11T03:21:33.885Z,0
2018-02-11T03:22:34.185Z,0
2018-02-11T03:23:34.226Z,0
2018-02-11T03:24:34.118Z,0
2018-02-11T03:25:34.346Z,0
2018-02-11T03:26:34.599Z,0
2018-02-11T03:27:34.148Z,0
2018-02-11T03:28:35.145Z,0
2018-02-11T03:29:33.925Z,0
2018-02-11T03:30:34.349Z,0
2018-02-11T03:31:35.001Z,0
2018-02-11T03:32:34.398Z,0
2018-02-11T03:33:34.093Z,0
2018-02-11T03:34:34.509Z,0
2018-02-11T03:35:34.600Z,0
2018-02-11T03:36:34.478Z,0
2018-02-11T03:37:34.329Z,0
2018-02-11T03:38:34.812Z,0
2018-02-11T03:39:35.569Z,0
2018-02-11T03:40:35.695Z,0
2018-02-11T03:41:33.983Z,0
2018-02-11T03:42:34.701Z,0
2018-02-11T03:43:34.551Z,0
2018-02-11T03:44:35.010Z,0
2018-02-11T03:45:35.464Z,0
2018-02-11T03:46:35.921Z,0
2018-02-11T03:47:35.952Z,0
2018-02-11T03:48:35.885Z,0
2018-02-11T03:49:35.710Z,0
2018-02-11T03:50:36.392Z,0
2018-02-11T03:51:35.638Z,0
2018-02-11T03:52:35.123Z,0
2018-02-11T03:53:36.009Z,0
2018-02-11T03:54:35.748Z,0
2018-02-11T03:55:36.564Z,0
2018-02-11T03:56:36.313Z,0
2018-02-11T03:57:35.680Z,0
2018-02-11T03:58:36.244Z,0
2018-02-11T03:59:36.319Z,0
2018-02-11T04:00:35.964Z,0
2018-02-11T04:01:36.063Z,0
2018-02-11T04:02:36.840Z,0
2018-02-11T04:03:36.603Z,0
2018-02-11T04:04:36.195Z,0
2018-02-11T04:05:36.535Z,0
2018-02-11T04:06:36.683Z,0
2018-02-11T04:07:36.976Z,0
2018-02-11T04:08:37.094Z,0
2018-02-11T04:09:38.023Z,0
2018-02-11T04:10:37.820Z,0
2018-02-11T04:11:37.385Z,0
2018-02-11T04:12:37.482Z,0
2018-02-11T04:13:37.586Z,0
2018-02-11T04:14:37.795Z,0
2018-02-11T04:15:37.799Z,0
2018-02-11T04:16:38.215Z,0
2018-02-11T04:17:38.557Z,0
2018-02-11T04:18:38.645Z,0
2018-02-11T04:19:39.614Z,0
2018-02-11T04:20:39.954Z,0
2018-02-11T04:21:39.128Z,0
2018-02-11T04:22:39.493Z,0
2018-02-11T04:23:39.091Z,0
2018-02-11T04:24:39.615Z,0
2018-02-11T04:25:40.013Z,0
2018-02-11T04:26:39.348Z,0
2018-02-11T04:27:40.052Z,0
2018-02-11T04:28:40.230Z,0
2018-02-11T04:29:40.020Z,0
2018-02-11T04:30:40.255Z,0
2018-02-11T04:31:40.248Z,0
2018-02-11T04:32:41.313Z,0
2018-02-11T04:33:40.773Z,0
2018-02-11T04:34:40.425Z,0
2018-02-11T04:35:40.206Z,0
2018-02-11T04:36:39.966Z,0
2018-02-11T04:37:42.309Z,0
2018-02-11T04:38:41.057Z,0
2018-02-11T04:39:40.694Z,0
2018-02-11T04:40:40.650Z,0
2018-02-11T04:41:40.646Z,0
2018-02-11T04:42:40.512Z,0
2018-02-11T04:43:40.411Z,0
2018-02-11T04:44:41.230Z,0
2018-02-11T04:45:41.296Z,0
2018-02-11T04:46:40.698Z,0
2018-02-11T04:47:41.414Z,0
2018-02-11T04:48:41.202Z,0
2018-02-11T04:49:40.394Z,0
2018-02-11T04:50:42.366Z,0
2018-02-11T04:51:41.566Z,0
2018-02-11T04:52:41.288Z,0
2018-02-11T04:53:42.782Z,0
2018-02-11T04:54:42.125Z,0
2018-02-11T04:55:42.992Z,0
2018-02-11T04:56:43.664Z,0
2018-02-11T04:57:43.661Z,0
2018-02-11T04:58:41.591Z,0
2018-02-11T04:59:41.666Z,0
2018-02-11T05:00:41.809Z,0
2018-02-11T05:01:41.914Z,0
2018-02-11T05:02:42.079Z,0
2018-02-11T05:03:41.916Z,0
2018-02-11T05:04:41.684Z,0
2018-02-11T05:05:42.063Z,0
2018-02-11T05:06:41.845Z,0
2018-02-11T05:07:42.211Z,0
2018-02-11T05:08:42.833Z,0
2018-02-11T05:09:42.661Z,0
2018-02-11T05:10:43.148Z,0
2018-02-11T05:11:42.586Z,0
2018-02-11T05:12:43.317Z,0
2018-02-11T05:13:43.132Z,0
2018-02-11T05:14:43.295Z,0
2018-02-11T05:15:43.916Z,0
2018-02-11T05:16:43.299Z,0
2018-02-11T05:17:43.089Z,0
2018-02-11T05:18:43.329Z,0
2018-02-11T05:19:43.342Z,0
2018-02-11T05:20:44.691Z,0
2018-02-11T05:21:44.217Z,0
2018-02-11T05:22:44.584Z,0
2018-02-11T05:23:44.018Z,0
2018-02-11T05:24:44.191Z,0
2018-02-11T05:25:44.947Z,0
2018-02-11T05:26:44.236Z,0
2018-02-11T05:27:44.920Z,0
2018-02-11T05:28:45.072Z,0
2018-02-11T05:29:46.041Z,0
2018-02-11T05:30:46.553Z,0
2018-02-11T05:31:44.589Z,0
2018-02-11T05:32:44.785Z,0
2018-02-11T05:33:44.645Z,0
2018-02-11T05:34:45.639Z,0
2018-02-11T05:35:44.766Z,0
2018-02-11T05:36:45.133Z,0
2018-02-11T05:37:45.750Z,0
2018-02-11T05:38:45.345Z,0
2018-02-11T05:39:45.359Z,0
2018-02-11T05:40:45.798Z,0
2018-02-11T05:41:46.437Z,0
2018-02-11T05:42:46.364Z,0
2018-02-11T05:43:46.259Z,0
2018-02-11T05:44:46.412Z,0
2018-02-11T05:45:46.392Z,0
2018-02-11T05:46:46.605Z,0
2018-02-11T05:47:46.783Z,0
2018-02-11T05:48:46.709Z,0
2018-02-11T05:49:47.030Z,0
2018-02-11T05:50:46.717Z,0
2018-02-11T05:51:47.553Z,0
2018-02-11T05:52:46.856Z,0
2018-02-11T05:53:47.349Z,0
2018-02-11T05:54:47.857Z,0
2018-02-11T05:55:48.020Z,0
2018-02-11T05:56:48.182Z,0
2018-02-11T05:57:48.641Z,0
2018-02-11T05:58:48.922Z,0
2018-02-11T05:59:48.238Z,0
2018-02-11T06:00:48.506Z,0
2018-02-11T06:01:48.951Z,0
2018-02-11T06:02:49.472Z,0
2018-02-11T06:03:49.222Z,0
2018-02-11T06:04:49.102Z,0
2018-02-11T06:05:49.453Z,0
2018-02-11T06:06:49.890Z,0
2018-02-11T06:07:49.655Z,0
2018-02-11T06:08:49.920Z,0
2018-02-11T06:09:50.134Z,0
2018-02-11T06:10:50.746Z,0
2018-02-11T06:11:50.708Z,0
2018-02-11T06:12:50.552Z,0
2018-02-11T06:13:50.920Z,0
2018-02-11T06:14:51.078Z,0
2018-02-11T06:15:50.716Z,0
2018-02-11T06:16:51.115Z,0
2018-02-11T06:17:51.747Z,0
2018-02-11T06:18:51.513Z,0
2018-02-11T06:19:53.438Z,0
2018-02-11T06:20:52.344Z,0
2018-02-11T06:21:52.688Z,0
2018-02-11T06:22:52.287Z,0
2018-02-11T06:23:52.810Z,0
2018-02-11T06:24:52.784Z,0
2018-02-11T06:25:52.823Z,5
2018-02-11T06:26:52.721Z,5
2018-02-11T06:27:53.343Z,5
2018-02-11T06:28:52.655Z,5
2018-02-11T06:29:53.128Z,5
2018-02-11T06:30:53.860Z,5
2018-02-11T06:31:53.058Z,5
2018-02-11T06:32:53.807Z,10
2018-02-11T06:33:53.587Z,10
2018-02-11T06:34:53.954Z,10
2018-02-11T06:35:54.645Z,10
2018-02-11T06:36:54.984Z,15
2018-02-11T06:37:54.440Z,15
2018-02-11T06:38:54.769Z,15
2018-02-11T06:39:54.572Z,20
2018-02-11T06:40:54.878Z,20
2018-02-11T06:41:55.231Z,20
2018-02-11T06:42:55.827Z,25
2018-02-11T06:43:55.212Z,25
2018-02-11T06:44:55.326Z,30
2018-02-11T06:45:56.096Z,30
2018-02-11T06:46:55.888Z,30
2018-02-11T06:47:55.690Z,35
2018-02-11T06:48:55.914Z,35
2018-02-11T06:49:55.935Z,40
2018-02-11T06:50:55.843Z,40
2018-02-11T06:51:56.390Z,45
2018-02-11T06:52:56.156Z,45
2018-02-11T06:53:56.043Z,50
2018-02-11T06:54:56.568Z,55
2018-02-11T06:55:56.669Z,55
2018-02-11T06:56:57.074Z,60
2018-02-11T06:57:56.766Z,60
2018-02-11T06:58:57.255Z,65
2018-02-11T06:59:57.915Z,70
2018-02-11T07:00:58.335Z,70
2018-02-11T07:01:58.483Z,75
2018-02-11T07:02:58.031Z,80
2018-02-11T07:03:57.295Z,80
2018-02-11T07:04:57.633Z,85
2018-02-11T07:05:58.083Z,90
2018-02-11T07:06:58.458Z,90
2018-02-11T07:07:58.954Z,95
2018-02-11T07:08:58.377Z,105
2018-02-11T07:09:58.949Z,115
2018-02-11T07:10:59.205Z,115
2018-02-11T07:11:58.504Z,120
2018-02-11T07:12:59.042Z,125
2018-02-11T07:13:59.218Z,135
2018-02-11T07:14:59.064Z,130
2018-02-11T07:15:59.179Z,135
2018-02-11T07:16:59.430Z,140
2018-02-11T07:17:59.409Z,140
2018-02-11T07:18:59.806Z,145
2018-02-11T07:19:59.744Z,145
2018-02-11T07:20:59.842Z,150
2018-02-11T07:21:59.591Z,150
2018-02-11T07:22:59.847Z,150
2018-02-11T07:24:00.563Z,145
2018-02-11T07:25:00.281Z,140
2018-02-11T07:26:00.688Z,140
2018-02-11T07:27:00.818Z,135
2018-02-11T07:28:00.523Z,130
2018-02-11T07:29:00.317Z,125
2018-02-11T07:30:01.201Z,125
2018-02-11T07:31:01.073Z,125
2018-02-11T07:32:00.989Z,125
2018-02-11T07:33:01.335Z,125
2018-02-11T07:34:01.510Z,125
2018-02-11T07:35:01.803Z,120
2018-02-11T07:36:01.453Z,110
2018-02-11T07:37:00.947Z,100
2018-02-11T07:38:01.445Z,100
2018-02-11T07:39:02.457Z,100
2018-02-11T07:40:02.059Z,100
2018-02-11T07:41:02.028Z,100
2018-02-11T07:42:02.442Z,100
2018-02-11T07:43:03.165Z,105
2018-02-11T07:44:03.049Z,105
2018-02-11T07:45:03.317Z,105
2018-02-11T07:46:03.482Z,105
2018-02-11T07:47:03.765Z,110
2018-02-11T07:48:04.404Z,115
2018-02-11T07:49:04.157Z,120
2018-02-11T07:50:04.633Z,125
2018-02-11T07:51:04.586Z,135
2018-02-11T07:52:04.346Z,140
2018-02-11T07:53:04.241Z,150
2018-02-11T07:54:04.563Z,155
2018-02-11T07:55:04.888Z,155
2018-02-11T07:56:04.429Z,155
2018-02-11T07:57:05.475Z,150
2018-02-11T07:58:04.799Z,145
2018-02-11T07:59:05.562Z,145
2018-02-11T08:01:05.131Z,135
2018-02-11T08:02:05.336Z,135
2018-02-11T08:03:05.761Z,125
2018-02-11T08:04:06.202Z,120
2018-02-11T08:05:07.150Z,120
2018-02-11T08:06:06.915Z,120
2018-02-11T08:07:06.778Z,115
2018-02-11T08:08:07.145Z,115
2018-02-11T08:09:06.996Z,120
2018-02-11T08:10:07.584Z,125
2018-02-11T08:11:07.543Z,140
2018-02-11T08:12:08.096Z,165
2018-02-11T08:13:09.153Z,190
2018-02-11T08:14:07.928Z,205
2018-02-11T08:15:08.064Z,215
2018-02-11T08:16:07.955Z,225
2018-02-11T08:17:07.441Z,245
2018-02-11T08:18:08.038Z,280
2018-02-11T08:19:07.724Z,315
2018-02-11T08:20:08.306Z,360
2018-02-11T08:21:08.543Z,380
2018-02-11T08:22:08.196Z,390
2018-02-11T08:23:08.571Z,410
2018-02-11T08:24:08.417Z,415
2018-02-11T08:25:08.359Z,410
2018-02-11T08:26:08.273Z,380
2018-02-11T08:27:08.046Z,310
2018-02-11T08:28:08.612Z,250
2018-02-11T08:29:08.788Z,215
2018-02-11T08:30:08.817Z,195
2018-02-11T08:31:09.468Z,195
2018-02-11T08:32:09.669Z,185
2018-02-11T08:33:08.614Z,185
2018-02-11T08:34:08.948Z,190
2018-02-11T08:35:09.275Z,190
2018-02-11T08:36:09.264Z,195
2018-02-11T08:37:08.938Z,200
2018-02-11T08:38:09.225Z,205
2018-02-11T08:39:09.762Z,215
2018-02-11T08:40:09.307Z,230
2018-02-11T08:41:09.586Z,240
2018-02-11T08:42:10.491Z,250
2018-02-11T08:43:10.451Z,250
2018-02-11T08:44:09.885Z,250
2018-02-11T08:45:10.297Z,255
2018-02-11T08:46:10.029Z,265
2018-02-11T08:47:10.582Z,270
2018-02-11T08:48:10.611Z,275
2018-02-11T08:49:10.347Z,280
2018-02-11T08:50:11.113Z,290
2018-02-11T08:51:12.008Z,290
2018-02-11T08:52:11.517Z,275
2018-02-11T08:53:12.748Z,270
2018-02-11T08:54:12.229Z,265
2018-02-11T08:55:12.531Z,250
2018-02-11T08:56:12.442Z,250
2018-02-11T08:57:11.648Z,250
2018-02-11T08:58:12.265Z,250
2018-02-11T08:59:12.151Z,260
2018-02-11T09:00:26.086Z,270
2018-02-11T09:01:12.535Z,275
2018-02-11T09:02:12.689Z,310
2018-02-11T09:03:12.808Z,360
2018-02-11T09:04:12.849Z,450
2018-02-11T09:05:12.510Z,510
2018-02-11T09:06:12.904Z,545
2018-02-11T09:07:13.571Z,605
2018-02-11T09:08:13.374Z,715
2018-02-11T09:09:13.915Z,735
2018-02-11T09:10:13.689Z,710
2018-02-11T09:11:13.584Z,660
2018-02-11T09:12:13.725Z,685
2018-02-11T09:13:14.357Z,600
2018-02-11T09:14:13.636Z,515
2018-02-11T09:15:14.265Z,375
2018-02-11T09:16:13.896Z,485
2018-02-11T09:17:13.909Z,470
2018-02-11T09:18:14.044Z,460
2018-02-11T09:19:14.473Z,390
2018-02-11T09:20:14.904Z,345
2018-02-11T09:21:15.457Z,335
2018-02-11T09:22:15.357Z,335
2018-02-11T09:23:15.579Z,295
2018-02-11T09:24:15.481Z,270
2018-02-11T09:25:16.146Z,260
2018-02-11T09:26:16.924Z,245
2018-02-11T09:27:16.039Z,225
2018-02-11T09:28:16.754Z,205
2018-02-11T09:29:16.247Z,195
2018-02-11T09:30:16.825Z,185
2018-02-11T09:31:17.365Z,180
2018-02-11T09:32:17.246Z,175
2018-02-11T09:33:17.617Z,170
2018-02-11T09:34:17.619Z,165
2018-02-11T09:35:18.526Z,160
2018-02-11T09:36:18.514Z,155
2018-02-11T09:37:18.413Z,155
2018-02-11T09:38:18.903Z,150
2018-02-11T09:39:18.867Z,155
2018-02-11T09:40:18.415Z,155
2018-02-11T09:41:19.156Z,155
2018-02-11T09:42:18.403Z,155
2018-02-11T09:43:19.167Z,155
2018-02-11T09:44:18.660Z,155
2018-02-11T09:45:20.183Z,160
2018-02-11T09:46:19.342Z,160
2018-02-11T09:47:19.233Z,170
2018-02-11T09:48:19.402Z,175
2018-02-11T09:49:19.831Z,180
2018-02-11T09:50:20.163Z,190
2018-02-11T09:51:20.287Z,200
2018-02-11T09:52:20.170Z,215
2018-02-11T09:53:20.355Z,240
2018-02-11T09:54:20.558Z,280
2018-02-11T09:55:20.758Z,360
2018-02-11T09:56:21.199Z,465
2018-02-11T09:57:21.622Z,610
2018-02-11T09:58:21.174Z,605
2018-02-11T09:59:21.573Z,530
2018-02-11T10:01:22.453Z,410
2018-02-11T10:02:36.949Z,375
2018-02-11T10:03:21.975Z,345
2018-02-11T10:04:22.787Z,345
2018-02-11T10:05:22.487Z,405
2018-02-11T10:06:21.974Z,405
2018-02-11T10:07:22.162Z,370
2018-02-11T10:08:22.241Z,350
2018-02-11T10:09:22.624Z,335
2018-02-11T10:10:22.552Z,330
2018-02-11T10:11:22.700Z,325
2018-02-11T10:12:23.072Z,315
2018-02-11T10:13:23.242Z,305
2018-02-11T10:14:23.694Z,290
2018-02-11T10:15:23.554Z,280
2018-02-11T10:16:23.580Z,275
2018-02-11T10:17:23.339Z,270
2018-02-11T10:18:23.290Z,270
2018-02-11T10:19:24.003Z,270
2018-02-11T10:20:23.863Z,265
2018-02-11T10:21:24.517Z,275
2018-02-11T10:22:24.171Z,290
2018-02-11T10:23:24.066Z,295
2018-02-11T10:24:24.688Z,290
2018-02-11T10:25:24.771Z,290
2018-02-11T10:26:24.497Z,295
2018-02-11T10:27:25.047Z,290
2018-02-11T10:28:25.021Z,280
2018-02-11T10:29:26.934Z,265
2018-02-11T10:30:25.554Z,255
2018-02-11T10:31:25.690Z,260
2018-02-11T10:32:25.803Z,250
2018-02-11T10:33:26.176Z,240
2018-02-11T10:34:26.132Z,240
2018-02-11T10:35:26.319Z,245
2018-02-11T10:36:26.615Z,255
2018-02-11T10:37:26.779Z,260
2018-02-11T10:38:27.659Z,260
2018-02-11T10:39:27.821Z,230
2018-02-11T10:40:28.327Z,185
2018-02-11T10:41:28.656Z,150
2018-02-11T10:42:28.515Z,125
2018-02-11T10:43:29.006Z,115
2018-02-11T10:44:29.204Z,105
2018-02-11T10:45:28.756Z,100
2018-02-11T10:46:29.143Z,100
2018-02-11T10:47:29.508Z,100
2018-02-11T10:48:29.914Z,110
2018-02-11T10:49:30.538Z,130
2018-02-11T10:50:30.618Z,135
2018-02-11T10:51:30.602Z,140
2018-02-11T10:52:30.384Z,155
2018-02-11T10:53:30.431Z,170
2018-02-11T10:54:30.641Z,180
2018-02-11T10:55:30.582Z,210
2018-02-11T10:56:30.776Z,225
2018-02-11T10:57:31.503Z,265
2018-02-11T10:58:31.189Z,280
2018-02-11T10:59:31.577Z,275
2018-02-11T11:00:31.330Z,285
2018-02-11T11:01:31.351Z,310
2018-02-11T11:02:31.558Z,315
2018-02-11T11:03:31.729Z,315
2018-02-11T11:04:32.535Z,320
2018-02-11T11:05:32.416Z,330
2018-02-11T11:06:32.822Z,315
2018-02-11T11:07:32.880Z,310
2018-02-11T11:08:32.549Z,315
2018-02-11T11:09:33.076Z,310
2018-02-11T11:10:33.520Z,310
2018-02-11T11:11:34.695Z,305
2018-02-11T11:12:33.224Z,305
2018-02-11T11:13:33.490Z,300
2018-02-11T11:14:34.072Z,300
2018-02-11T11:15:33.779Z,295
2018-02-11T11:16:33.943Z,285
2018-02-11T11:17:34.014Z,285
2018-02-11T11:18:34.531Z,280
2018-02-11T11:19:34.238Z,280
2018-02-11T11:20:34.898Z,275
2018-02-11T11:21:34.740Z,285
2018-02-11T11:22:34.931Z,285
2018-02-11T11:23:34.911Z,285
2018-02-11T11:24:34.876Z,285
2018-02-11T11:25:34.299Z,280
2018-02-11T11:26:35.382Z,255
2018-02-11T11:27:35.569Z,240
2018-02-11T11:28:35.798Z,225
2018-02-11T11:29:36.302Z,220
2018-02-11T11:30:36.115Z,225
2018-02-11T11:31:36.342Z,220
2018-02-11T11:32:36.255Z,220
2018-02-11T11:33:36.108Z,200
2018-02-11T11:34:36.667Z,185
2018-02-11T11:35:36.501Z,175
2018-02-11T11:36:36.448Z,165
2018-02-11T11:37:38.509Z,165
2018-02-11T11:38:38.657Z,160
2018-02-11T11:39:37.206Z,160
2018-02-11T11:40:37.795Z,165
2018-02-11T11:41:37.039Z,170
2018-02-11T11:42:37.607Z,180
2018-02-11T11:43:37.248Z,180
2018-02-11T11:44:38.062Z,165
2018-02-11T11:45:37.767Z,165
2018-02-11T11:46:38.038Z,160
2018-02-11T11:47:37.522Z,155
2018-02-11T11:48:37.742Z,150
2018-02-11T11:49:37.380Z,155
2018-02-11T11:50:37.865Z,155
2018-02-11T11:51:38.099Z,160
2018-02-11T11:52:37.929Z,155
2018-02-11T11:53:38.442Z,155
2018-02-11T11:54:38.931Z,155
2018-02-11T11:55:38.977Z,160
2018-02-11T11:56:38.493Z,165
2018-02-11T11:57:38.476Z,160
2018-02-11T11:58:39.065Z,160
2018-02-11T11:59:38.650Z,155
2018-02-11T12:00:39.779Z,150
2018-02-11T12:01:39.113Z,160
2018-02-11T12:02:39.143Z,160
2018-02-11T12:03:39.412Z,140
2018-02-11T12:04:39.302Z,145
2018-02-11T12:05:40.171Z,145
2018-02-11T12:06:40.333Z,150
2018-02-11T12:07:40.312Z,140
2018-02-11T12:08:39.910Z,130
2018-02-11T12:09:40.610Z,130
2018-02-11T12:10:39.830Z,140
2018-02-11T12:11:40.233Z,150
2018-02-11T12:12:40.925Z,140
2018-02-11T12:13:41.019Z,135
2018-02-11T12:14:40.168Z,130
2018-02-11T12:15:41.057Z,120
2018-02-11T12:16:40.997Z,120
2018-02-11T12:17:40.785Z,120
2018-02-11T12:18:41.536Z,115
2018-02-11T12:19:41.331Z,105
2018-02-11T12:20:40.985Z,105
2018-02-11T12:21:41.437Z,100
2018-02-11T12:22:42.133Z,95
2018-02-11T12:23:41.850Z,95
2018-02-11T12:24:41.980Z,95
2018-02-11T12:25:43.674Z,105
2018-02-11T12:26:42.979Z,110
2018-02-11T12:27:43.871Z,120
2018-02-11T12:28:42.607Z,120
2018-02-11T12:29:43.144Z,125
2018-02-11T12:30:42.993Z,120
2018-02-11T12:31:43.050Z,115
2018-02-11T12:32:42.863Z,115
2018-02-11T12:33:43.615Z,115
2018-02-11T12:34:43.725Z,125
2018-02-11T12:35:43.360Z,120
2018-02-11T12:36:43.426Z,135
2018-02-11T12:37:43.866Z,135
2018-02-11T12:38:44.573Z,125
2018-02-11T12:39:43.744Z,130
2018-02-11T12:40:44.278Z,145
2018-02-11T12:41:43.641Z,140
2018-02-11T12:42:44.452Z,140
2018-02-11T12:43:44.236Z,145
2018-02-11T12:44:43.872Z,150
2018-02-11T12:45:44.533Z,140
2018-02-11T12:46:44.474Z,135
2018-02-11T12:47:45.660Z,115
2018-02-11T12:48:45.033Z,125
2018-02-11T12:49:44.802Z,125
2018-02-11T12:50:45.322Z,135
2018-02-11T12:51:45.427Z,135
2018-02-11T12:52:45.119Z,135
2018-02-11T12:53:46.255Z,135
2018-02-11T12:54:45.565Z,125
2018-02-11T12:55:45.888Z,130
2018-02-11T12:56:46.307Z,125
2018-02-11T12:57:47.023Z,110
2018-02-11T12:58:47.353Z,90
2018-02-11T12:59:47.235Z,90
2018-02-11T13:00:48.785Z,105
2018-02-11T13:01:49.075Z,125
2018-02-11T13:02:47.144Z,135
2018-02-11T13:03:48.755Z,140
2018-02-11T13:04:47.798Z,145
2018-02-11T13:05:47.967Z,140
2018-02-11T13:06:48.668Z,140
2018-02-11T13:07:48.526Z,115
2018-02-11T13:08:49.041Z,105
2018-02-11T13:09:48.798Z,95
2018-02-11T13:10:48.686Z,95
2018-02-11T13:11:47.944Z,105
2018-02-11T13:12:48.847Z,120
2018-02-11T13:13:49.206Z,110
2018-02-11T13:14:48.731Z,115
2018-02-11T13:15:48.906Z,110
2018-02-11T13:16:48.603Z,125
2018-02-11T13:17:48.875Z,110
2018-02-11T13:18:49.951Z,105
2018-02-11T13:19:49.559Z,90
2018-02-11T13:20:49.403Z,85
2018-02-11T13:21:49.082Z,95
2018-02-11T13:22:49.594Z,105
2018-02-11T13:23:49.264Z,95
2018-02-11T13:24:49.553Z,95
2018-02-11T13:25:49.676Z,80
2018-02-11T13:26:50.317Z,85
2018-02-11T13:27:50.083Z,75
2018-02-11T13:28:50.225Z,75
2018-02-11T13:29:50.208Z,75
2018-02-11T13:30:50.677Z,85
2018-02-11T13:31:50.159Z,95
2018-02-11T13:32:50.833Z,90
2018-02-11T13:33:50.311Z,85
2018-02-11T13:34:51.065Z,90
2018-02-11T13:35:53.198Z,90
2018-02-11T13:36:52.060Z,80
2018-02-11T13:37:52.889Z,60
2018-02-11T13:38:52.289Z,45
2018-02-11T13:39:51.905Z,60
2018-02-11T13:40:50.999Z,80
2018-02-11T13:41:51.229Z,85
2018-02-11T13:42:50.782Z,85
2018-02-11T13:43:51.070Z,75
2018-02-11T13:44:50.886Z,55
2018-02-11T13:45:51.604Z,45
2018-02-11T13:46:52.173Z,45
2018-02-11T13:47:51.972Z,55
2018-02-11T13:48:51.818Z,55
2018-02-11T13:49:52.238Z,60
2018-02-11T13:50:52.253Z,70
2018-02-11T13:51:52.448Z,65
2018-02-11T13:52:52.965Z,70
2018-02-11T13:53:52.968Z,75
2018-02-11T13:54:53.252Z,65
2018-02-11T13:55:53.031Z,70
2018-02-11T13:56:53.047Z,75
2018-02-11T13:57:52.465Z,70
2018-02-11T13:58:53.047Z,70
2018-02-11T13:59:52.989Z,75
2018-02-11T14:00:53.749Z,70
2018-02-11T14:01:53.539Z,75
2018-02-11T14:02:54.257Z,75
2018-02-11T14:03:54.084Z,75
2018-02-11T14:04:54.392Z,75
2018-02-11T14:05:53.903Z,75
2018-02-11T14:06:54.998Z,70
2018-02-11T14:07:54.733Z,60
2018-02-11T14:08:54.290Z,65
2018-02-11T14:09:56.015Z,65
2018-02-11T14:10:55.281Z,55
2018-02-11T14:11:54.633Z,55
2018-02-11T14:12:55.401Z,60
2018-02-11T14:13:55.157Z,55
2018-02-11T14:14:55.072Z,50
2018-02-11T14:15:55.557Z,55
2018-02-11T14:16:55.247Z,55
2018-02-11T14:17:55.974Z,55
2018-02-11T14:18:55.398Z,50
2018-02-11T14:19:55.919Z,45
2018-02-11T14:20:56.195Z,45